createdAt,value
2017-01-23T00:03:18.805Z,0
2017-01-23T00:13:32.054Z,0
2017-01-23T00:23:45.279Z,0
2017-01-23T00:33:58.553Z,0
2017-01-23T00:44:11.930Z,0
2017-01-23T00:54:25.351Z,0
2017-01-23T01:04:38.820Z,0
2017-01-23T01:14:52.260Z,0
2017-01-23T01:25:05.687Z,0
2017-01-23T01:35:19.138Z,0
2017-01-23T01:45:32.547Z,0
2017-01-23T01:55:45.955Z,0
2017-01-23T02:05:59.351Z,0
2017-01-23T02:16:12.694Z,0
2017-01-23T02:26:26.094Z,0
2017-01-23T02:36:39.571Z,0
2017-01-23T02:46:53.009Z,0
2017-01-23T02:57:06.454Z,0
2017-01-23T03:07:19.818Z,0
2017-01-23T03:17:33.198Z,0
2017-01-23T03:27:46.506Z,0
2017-01-23T03:37:59.883Z,0
2017-01-23T03:48:13.245Z,0
2017-01-23T03:58:26.620Z,0
2017-01-23T04:08:39.832Z,0
2017-01-23T04:18:53.037Z,0
2017-01-23T04:29:06.285Z,0
2017-01-23T04:39:19.496Z,0
2017-01-23T04:49:32.714Z,0
2017-01-23T04:59:45.767Z,0
2017-01-23T05:09:58.870Z,0
2017-01-23T05:20:12.044Z,0
2017-01-23T05:30:25.185Z,0
2017-01-23T05:40:38.226Z,0
2017-01-23T05:50:51.239Z,0
2017-01-23T06:01:04.258Z,0
2017-01-23T06:11:17.312Z,0
2017-01-23T06:21:30.387Z,0
2017-01-23T06:31:43.387Z,0
2017-01-23T06:41:56.428Z,0
2017-01-23T06:52:09.347Z,4
2017-01-23T07:02:22.283Z,12
2017-01-23T07:12:35.279Z,48
2017-01-23T07:22:48.206Z,144
2017-01-23T07:33:01.023Z,280
2017-01-23T07:43:13.866Z,404
2017-01-23T07:53:26.676Z,524
2017-01-23T08:03:39.443Z,752
2017-01-23T08:13:52.194Z,856
2017-01-23T08:24:04.914Z,816
2017-01-23T08:34:17.652Z,1332
2017-01-23T08:44:30.381Z,1804
2017-01-23T08:54:43.051Z,2128
2017-01-23T09:04:55.758Z,2568
2017-01-23T09:15:08.382Z,2536
2017-01-23T09:25:20.959Z,2936
2017-01-23T09:35:33.511Z,3632
2017-01-23T09:45:46.026Z,4320
2017-01-23T09:55:58.555Z,2728
2017-01-23T10:06:11.050Z,3772
2017-01-23T10:16:23.525Z,4488
2017-01-23T10:26:35.943Z,5480
2017-01-23T10:36:48.386Z,6044
2017-01-23T10:47:00.756Z,6016
2017-01-23T10:57:13.137Z,5684
2017-01-23T11:07:25.485Z,6428
2017-01-23T11:17:37.849Z,5896
2017-01-23T11:27:50.110Z,5452
2017-01-23T11:38:02.379Z,5092
2017-01-23T11:48:14.714Z,6028
2017-01-23T11:58:27.016Z,5360
2017-01-23T12:08:39.395Z,5644
2017-01-23T12:18:51.764Z,5688
2017-01-23T12:29:04.073Z,6232
2017-01-23T12:39:16.431Z,6412
2017-01-23T12:49:28.833Z,4848
2017-01-23T12:59:41.228Z,4628
2017-01-23T13:09:53.592Z,4384
2017-01-23T13:20:05.972Z,5840
2017-01-23T13:30:18.369Z,4832
2017-01-23T13:40:30.744Z,4228
2017-01-23T13:50:43.103Z,3284
2017-01-23T14:00:55.428Z,3776
2017-01-23T14:11:07.809Z,3340
2017-01-23T14:21:20.125Z,2592
2017-01-23T14:31:32.520Z,2568
2017-01-23T14:41:44.958Z,2296
2017-01-23T14:51:57.233Z,2108
2017-01-23T15:02:09.612Z,1820
2017-01-23T15:12:21.999Z,1488
2017-01-23T15:22:34.392Z,1012
2017-01-23T15:32:46.859Z,748
2017-01-23T15:42:59.175Z,520
2017-01-23T15:53:11.609Z,264
2017-01-23T16:03:24.018Z,116
2017-01-23T16:13:36.478Z,36
2017-01-23T16:23:49.004Z,12
2017-01-23T16:34:01.560Z,4
2017-01-23T16:44:14.061Z,0
2017-01-23T16:54:26.620Z,0
2017-01-23T17:04:39.093Z,0
2017-01-23T17:14:51.609Z,0
2017-01-23T17:25:04.102Z,0
2017-01-23T17:35:16.607Z,0
2017-01-23T17:45:29.130Z,0
2017-01-23T17:55:41.732Z,0
2017-01-23T18:05:54.160Z,0
2017-01-23T18:16:06.726Z,0
2017-01-23T18:26:19.249Z,0
2017-01-23T18:36:31.723Z,0
2017-01-23T18:46:44.162Z,0
2017-01-23T18:56:56.719Z,0
2017-01-23T19:07:09.349Z,0
2017-01-23T19:17:21.897Z,0
2017-01-23T19:27:34.452Z,0
2017-01-23T19:37:46.968Z,0
2017-01-23T19:47:59.476Z,0
2017-01-23T19:58:12.030Z,0
2017-01-23T20:08:24.639Z,0
2017-01-23T20:18:37.080Z,0
2017-01-23T20:28:49.596Z,0
2017-01-23T20:39:02.055Z,0
2017-01-23T20:49:14.570Z,0
2017-01-23T20:59:27.062Z,0
2017-01-23T21:09:39.520Z,0
2017-01-23T21:19:52.016Z,0
2017-01-23T21:30:04.473Z,0
2017-01-23T21:40:16.939Z,0
2017-01-23T21:50:29.433Z,0
2017-01-23T22:00:41.906Z,0
2017-01-23T22:10:54.406Z,0
2017-01-23T22:21:06.866Z,0
2017-01-23T22:31:19.257Z,0
2017-01-23T22:41:31.776Z,0
2017-01-23T22:51:44.229Z,0
2017-01-23T23:01:56.684Z,0
2017-01-23T23:12:09.176Z,0
2017-01-23T23:22:21.617Z,0
2017-01-23T23:32:34.041Z,0
2017-01-23T23:42:46.464Z,0
2017-01-23T23:52:58.942Z,0
